Brochet, Canada
Current Conditions -  °F | °C
As of 8:00 AM on Monday 24 Nov 2014 (Local Time) from CYYL Reporting Station
Light Snow Light Snow  
Wind Chill: -11°   Ceiling: 4400
Heat Index:   Visibility: 4mi
Dew Point:   Wind: 7mph
Humidity: 92%   Direction: 250°WSW
Pressure: 29.77"   Gusts: NA
Location:  57.88°N, 101.67°W
Report Text: CYYL 241400Z AUTO 25006KT 4SM -SN OVC044 M17/M18 A2977 RMK SLP123
Loading
Personal Weather Stations






























Interactive Weather Map New forecast layout! Learn more

10-Day Weather Forecast

Advertisements
Track Severe Weather on mobile